Aviation Digital Data Service (ADDS)

Output produced by METARs form (1646 UTC 20 January 2019)
found at http://www.aviationweather.gov/metar/data/
 
LCRA 201550Z 07018KT CAVOK 13/07 Q1020 NOSIG
TAF LCRA 201544Z 2018/2112 08015KT 9999 FEW035 
     BECMG 2019/2022 04010KT
       
LCLK 201630Z 36006KT 340V040 9999 FEW022 12/07 Q1021 NOSIG
TAF LCLK 201130Z 2012/2112 05013KT 9999 FEW025
       
LCPH 201630Z 03003KT 9999 FEW030 11/08 Q1020
TAF LCPH 201130Z 2012/2112 14013KT 9999 SCT030 
     BECMG 2017/2019 02006KT 
     BECMG 2106/2109 14013KT